Time;durP1;ratioP1;P1;durP2;ratioP2;P2;SDS_P1;SDS_P2;PMS_P1;PMS_P2;Temp;Humidity;BMP_temperature;BMP_pressure;BME280_temperature;BME280_humidity;BME280_pressure;Samples;Min_cycle;Max_cycle;Signal;HPM_P1;HPM_P2
2022/09/25 00:01:28;;;;;;;29.97;26.80;;;;;;;11.96;100.00;96332.50;4972887;28;20200;-75
2022/09/25 00:03:53;;;;;;;32.90;29.43;;;;;;;11.98;100.00;96336.47;4973326;28;20196;-75
2022/09/25 00:06:22;;;;;;;30.67;27.37;;;;;;;11.96;100.00;96329.88;4973263;28;20215;-75
2022/09/25 00:08:48;;;;;;;34.47;29.63;;;;;;;11.95;100.00;96329.09;4973040;28;20204;-75
2022/09/25 00:11:17;;;;;;;33.03;29.43;;;;;;;11.93;100.00;96330.38;4973491;28;20185;-75
2022/09/25 00:13:44;;;;;;;32.90;29.30;;;;;;;11.94;100.00;96324.06;4973485;28;20188;-73
2022/09/25 00:16:12;;;;;;;31.23;27.93;;;;;;;11.82;100.00;96331.28;4973007;28;20193;-75
2022/09/25 00:21:22;;;;;;;34.10;29.47;;;;;;;11.87;100.00;96324.25;4958471;28;20546;-74
2022/09/25 00:23:47;;;;;;;32.13;28.63;;;;;;;11.87;100.00;96324.25;4955738;28;20188;-74
2022/09/25 00:26:15;;;;;;;31.37;27.53;;;;;;;11.88;100.00;96322.44;4972676;28;20242;-74
2022/09/25 00:28:41;;;;;;;31.63;27.33;;;;;;;11.84;100.00;96324.75;4972820;28;20331;-74
2022/09/25 00:31:09;;;;;;;32.50;28.70;;;;;;;11.85;100.00;96331.59;4973089;28;20173;-74
2022/09/25 00:33:35;;;;;;;35.97;30.30;;;;;;;11.81;100.00;96327.09;4955258;28;20557;-74
2022/09/25 00:36:03;;;;;;;35.40;30.67;;;;;;;11.83;100.00;96322.38;4972923;28;20200;-74
2022/09/25 00:38:30;;;;;;;38.07;34.07;;;;;;;11.81;100.00;96322.63;4972997;28;20224;-74
2022/09/25 00:40:56;;;;;;;32.87;28.50;;;;;;;11.73;100.00;96315.19;4955704;28;20200;-74
2022/09/25 00:43:43;;;;;;;38.50;31.80;;;;;;;11.85;100.00;96307.19;4974147;28;20192;-75
2022/09/25 00:46:17;;;;;;;40.93;36.73;;;;;;;11.90;100.00;96310.66;4976460;28;20202;-75
2022/09/25 00:48:50;;;;;;;40.60;36.47;;;;;;;11.91;100.00;96307.00;4976388;28;20649;-75
2022/09/25 00:51:19;;;;;;;37.20;32.83;;;;;;;11.98;100.00;96306.81;4969359;28;20677;-75
2022/09/25 00:53:45;;;;;;;41.63;37.47;;;;;;;11.91;100.00;96306.19;4976033;28;20204;-75
2022/09/25 00:56:12;;;;;;;40.57;36.27;;;;;;;12.03;100.00;96301.59;4976059;28;20177;-75
2022/09/25 00:58:39;;;;;;;40.97;34.37;;;;;;;12.03;100.00;96296.34;4975882;28;20212;-75
2022/09/25 01:01:06;;;;;;;39.43;33.77;;;;;;;11.90;100.00;96292.28;4975958;28;20254;-75
2022/09/25 01:03:32;;;;;;;39.37;33.33;;;;;;;12.00;100.00;96286.31;4976153;28;20559;-75
2022/09/25 01:06:00;;;;;;;36.77;31.57;;;;;;;12.02;100.00;96285.03;4976070;28;20692;-75
2022/09/25 01:08:27;;;;;;;40.40;35.07;;;;;;;12.04;100.00;96276.91;4975914;28;20188;-75
2022/09/25 01:10:52;;;;;;;42.37;33.70;;;;;;;12.03;100.00;96278.75;4975952;28;20661;-75
2022/09/25 01:13:19;;;;;;;37.17;33.10;;;;;;;12.11;100.00;96282.75;4975831;28;20209;-75
2022/09/25 01:16:06;;;;;;;38.03;34.03;;;;;;;12.17;100.00;96288.84;4974943;28;20646;-75
2022/09/25 01:18:52;;;;;;;41.27;36.87;;;;;;;12.14;100.00;96295.41;4975808;28;20223;-75
2022/09/25 01:21:32;;;;;;;37.27;33.40;;;;;;;12.21;100.00;96287.31;4975861;28;20259;-75
2022/09/25 01:24:00;;;;;;;42.27;38.00;;;;;;;12.13;100.00;96288.56;4974905;28;20188;-75
2022/09/25 01:26:50;;;;;;;43.10;38.93;;;;;;;12.21;100.00;96285.47;4975364;28;20192;-74
2022/09/25 01:29:26;;;;;;;47.87;43.37;;;;;;;12.12;100.00;96291.44;4975054;28;20208;-74
2022/09/25 01:32:03;;;;;;;56.40;50.87;;;;;;;11.99;100.00;96280.28;4974912;28;20224;-74
2022/09/25 01:34:44;;;;;;;54.43;49.10;;;;;;;12.20;100.00;96277.88;4975442;28;20306;-75
2022/09/25 01:37:30;;;;;;;56.73;51.27;;;;;;;12.16;100.00;96274.91;4974970;28;20181;-75
2022/09/25 01:40:08;;;;;;;57.07;51.63;;;;;;;11.99;100.00;96285.53;4975624;28;20189;-75
2022/09/25 01:42:41;;;;;;;50.90;46.10;;;;;;;12.07;100.00;96286.94;4968421;28;20197;-75
2022/09/25 01:45:10;;;;;;;57.00;51.63;;;;;;;12.02;100.00;96289.50;4975067;28;20636;-75
2022/09/25 01:47:37;;;;;;;56.27;51.20;;;;;;;12.18;100.00;96293.06;4975162;28;20251;-75
2022/09/25 01:50:17;;;;;;;55.10;50.00;;;;;;;12.01;100.00;96285.28;4975243;28;20260;-75
2022/09/25 01:52:48;;;;;;;53.37;48.47;;;;;;;11.87;100.00;96284.88;4974843;28;20188;-75
2022/09/25 01:55:23;;;;;;;47.13;42.63;;;;;;;12.06;100.00;96294.00;4974135;28;20530;-75
2022/09/25 01:58:04;;;;;;;45.20;40.83;;;;;;;12.17;100.00;96296.72;4975089;28;20202;-75
2022/09/25 02:00:32;;;;;;;46.97;43.23;;;;;;;11.86;100.00;96293.81;4967565;28;20191;-76
2022/09/25 02:03:08;;;;;;;45.67;42.27;;;;;;;11.68;100.00;96292.25;4974760;28;20592;-74
2022/09/25 02:05:46;;;;;;;51.00;47.23;;;;;;;11.80;100.00;96299.25;4974366;28;21826;-75
2022/09/25 02:08:23;;;;;;;58.43;54.33;;;;;;;11.95;100.00;96297.56;4974831;28;20200;-75
2022/09/25 02:10:56;;;;;;;52.40;48.73;;;;;;;11.87;100.00;96292.75;4957357;28;20204;-75
2022/09/25 02:13:25;;;;;;;31.00;28.50;;;;;;;11.79;100.00;96295.81;4974321;28;20627;-75
2022/09/25 02:16:04;;;;;;;30.17;27.77;;;;;;;11.79;100.00;96295.03;4963228;28;20208;-75
2022/09/25 02:21:26;;;;;;;36.33;33.53;;;;;;;11.71;100.00;96287.53;4973890;28;20203;-75
2022/09/25 02:24:04;;;;;;;48.53;45.10;;;;;;;11.64;100.00;96293.00;4974014;28;20273;-75
2022/09/25 02:26:31;;;;;;;50.57;46.67;;;;;;;11.62;100.00;96292.44;4957117;28;20664;-75
2022/09/25 02:28:57;;;;;;;42.70;39.10;;;;;;;11.66;100.00;96289.09;4973898;28;20201;-75
2022/09/25 02:31:34;;;;;;;36.30;33.30;;;;;;;11.67;100.00;96289.88;4973899;28;20743;-74
2022/09/25 02:34:00;;;;;;;36.10;33.10;;;;;;;11.71;100.00;96287.53;4974131;28;20693;-75
2022/09/25 02:36:26;;;;;;;32.87;29.63;;;;;;;11.90;100.00;96280.97;4974275;28;20196;-75
2022/09/25 02:38:54;;;;;;;35.57;32.20;;;;;;;11.91;100.00;96285.19;4973914;28;20251;-75
2022/09/25 02:41:25;;;;;;;44.93;41.37;;;;;;;11.72;100.00;96287.31;4974268;28;20680;-75
2022/09/25 02:43:59;;;;;;;44.00;40.27;;;;;;;11.72;100.00;96283.88;4974179;28;20201;-75
2022/09/25 02:46:41;;;;;;;43.30;39.43;;;;;;;11.74;100.00;96287.91;4974217;28;20645;-75
2022/09/25 02:49:26;;;;;;;37.43;33.87;;;;;;;11.69;100.00;96279.94;4967747;28;20630;-75
2022/09/25 02:52:01;;;;;;;36.43;32.70;;;;;;;11.62;100.00;96277.50;4973951;28;20181;-75
2022/09/25 02:54:33;;;;;;;40.97;34.50;;;;;;;11.81;100.00;96279.84;4974248;28;20188;-75
2022/09/25 02:57:11;;;;;;;120.77;34.70;;;;;;;11.73;100.00;96274.97;4974076;28;20185;-74
2022/09/25 02:59:43;;;;;;;39.67;34.20;;;;;;;11.59;100.00;96272.72;4973708;28;20187;-75
2022/09/25 03:02:11;;;;;;;107.93;28.73;;;;;;;11.20;100.00;96268.59;4967659;28;20180;-74
2022/09/25 03:04:38;;;;;;;57.80;30.47;;;;;;;11.19;100.00;96274.88;4956731;28;20188;-74
2022/09/25 03:07:05;;;;;;;37.37;33.63;;;;;;;11.39;100.00;96267.25;4955698;28;20288;-75
2022/09/25 03:09:35;;;;;;;49.67;45.53;;;;;;;11.39;100.00;96267.25;4956472;28;20213;-74
2022/09/25 03:12:03;;;;;;;52.60;48.13;;;;;;;11.61;100.00;96267.22;4973782;28;20212;-74
2022/09/25 03:14:30;;;;;;;46.83;42.67;;;;;;;11.80;100.00;96280.88;4973742;28;20188;-74
2022/09/25 03:16:58;;;;;;;49.20;44.90;;;;;;;11.55;100.00;96276.88;4972712;28;20184;-74
2022/09/25 03:19:26;;;;;;;46.93;42.57;;;;;;;11.55;100.00;96278.69;4973569;28;20219;-75
2022/09/25 03:21:53;;;;;;;41.73;37.63;;;;;;;11.52;100.00;96282.63;4973464;28;20189;-75
2022/09/25 03:24:18;;;;;;;41.03;37.17;;;;;;;11.56;100.00;96277.66;4973567;28;20184;-74
2022/09/25 03:26:44;;;;;;;53.20;48.27;;;;;;;11.60;100.00;96284.81;4972816;28;20193;-74
2022/09/25 03:29:11;;;;;;;54.17;49.47;;;;;;;11.70;100.00;96286.78;4973519;28;20275;-75
2022/09/25 03:31:37;;;;;;;48.27;43.90;;;;;;;11.60;100.00;96289.25;4973127;28;20227;-75
2022/09/25 03:34:02;;;;;;;45.47;41.23;;;;;;;11.60;100.00;96284.81;4973597;28;20197;-74
2022/09/25 03:36:29;;;;;;;41.93;38.20;;;;;;;11.62;100.00;96290.63;4973571;28;20181;-74
2022/09/25 03:38:57;;;;;;;32.20;29.00;;;;;;;11.72;100.00;96291.75;4973348;28;20649;-74
2022/09/25 03:41:25;;;;;;;31.37;27.23;;;;;;;11.59;100.00;96298.19;4973370;28;20184;-74
2022/09/25 03:43:50;;;;;;;34.07;30.87;;;;;;;11.55;100.00;96294.44;4973294;28;20610;-74
2022/09/25 03:46:19;;;;;;;35.03;31.70;;;;;;;11.57;100.00;96295.81;4973252;28;20192;-75
2022/09/25 03:48:45;;;;;;;37.43;34.10;;;;;;;11.67;100.00;96292.50;4972887;28;20195;-75
2022/09/25 03:51:11;;;;;;;33.77;30.63;;;;;;;11.52;100.00;96285.25;4973284;28;20707;-74
2022/09/25 03:53:37;;;;;;;38.03;34.43;;;;;;;11.33;100.00;96268.22;4956012;28;20196;-74
2022/09/25 03:56:06;;;;;;;33.13;29.93;;;;;;;11.14;100.00;96265.09;4973267;28;20181;-75
2022/09/25 03:58:31;;;;;;;36.00;32.37;;;;;;;11.11;100.00;96273.44;4973518;28;20319;-74
2022/09/25 04:00:57;;;;;;;33.33;30.03;;;;;;;11.23;100.00;96266.25;4973030;28;20645;-75
2022/09/25 04:03:25;;;;;;;30.27;27.03;;;;;;;11.53;100.00;96268.47;4973238;28;20476;-75
2022/09/25 04:05:50;;;;;;;34.27;31.10;;;;;;;11.38;100.00;96270.88;4964117;28;20706;-75
2022/09/25 04:08:16;;;;;;;31.53;26.27;;;;;;;11.30;100.00;96271.34;4972614;28;20359;-75
2022/09/25 04:10:41;;;;;;;27.63;24.30;;;;;;;11.46;100.00;96265.22;4973416;28;20169;-75
2022/09/25 04:13:11;;;;;;;26.77;23.73;;;;;;;11.32;100.00;96265.81;4973198;28;20551;-75
2022/09/25 04:15:38;;;;;;;28.80;25.53;;;;;;;11.49;100.00;96266.56;4972426;28;20204;-75
2022/09/25 04:18:04;;;;;;;27.20;24.50;;;;;;;11.36;100.00;96259.88;4974866;28;20239;-75
2022/09/25 04:20:29;;;;;;;29.63;26.50;;;;;;;11.32;100.00;96266.63;4969268;28;20184;-75
2022/09/25 04:22:54;;;;;;;32.53;29.33;;;;;;;11.38;100.00;96262.22;4976422;28;20567;-75
2022/09/25 04:25:24;;;;;;;33.20;30.00;;;;;;;11.45;100.00;96265.47;4976651;28;20665;-75
2022/09/25 04:27:54;;;;;;;36.50;32.93;;;;;;;11.21;100.00;96267.53;4976467;28;20554;-75
2022/09/25 04:30:23;;;;;;;32.40;29.07;;;;;;;11.35;100.00;96279.25;4976375;28;20227;-75
2022/09/25 04:35:32;;;;;;;29.80;26.97;;;;;;;11.35;100.00;96281.09;4976189;28;20228;-75
2022/09/25 04:37:57;;;;;;;30.53;27.63;;;;;;;11.30;100.00;96281.81;4976114;28;20205;-75
2022/09/25 04:40:23;;;;;;;28.20;25.50;;;;;;;11.23;100.00;96271.50;4976625;28;20188;-77
2022/09/25 04:42:54;;;;;;;27.93;25.03;;;;;;;11.31;100.00;96274.75;4976487;28;20276;-78
2022/09/25 04:45:19;;;;;;;28.33;25.37;;;;;;;11.26;100.00;96273.63;4976781;28;20184;-78
2022/09/25 04:47:45;;;;;;;25.97;23.13;;;;;;;11.30;100.00;96271.34;4976297;28;20188;-78
2022/09/25 04:50:10;;;;;;;24.83;21.43;;;;;;;11.28;100.00;96273.41;4976754;28;20614;-77
2022/09/25 04:52:35;;;;;;;25.90;22.37;;;;;;;11.48;100.00;96273.63;4976158;28;20189;-78
2022/09/25 04:55:03;;;;;;;25.50;22.73;;;;;;;11.48;100.00;96276.25;4976426;28;20193;-78
2022/09/25 04:57:28;;;;;;;28.80;22.77;;;;;;;11.34;100.00;96272.44;4976143;28;20189;-78
2022/09/25 04:59:53;;;;;;;25.97;23.20;;;;;;;11.30;100.00;96270.53;4976060;28;20188;-78
2022/09/25 05:02:19;;;;;;;26.73;22.40;;;;;;;11.18;100.00;96276.69;4976225;28;20207;-78
2022/09/25 05:04:44;;;;;;;25.17;20.57;;;;;;;11.19;100.00;96273.03;4958366;28;20192;-78
2022/09/25 05:07:09;;;;;;;24.87;22.00;;;;;;;11.19;100.00;96283.53;4975716;28;20189;-77
2022/09/25 05:09:35;;;;;;;26.30;21.00;;;;;;;11.21;100.00;96272.78;4975782;28;20199;-78
2022/09/25 05:12:00;;;;;;;31.40;21.30;;;;;;;11.36;100.00;96278.22;4958704;28;20191;-78
2022/09/25 05:14:26;;;;;;;25.33;20.90;;;;;;;11.33;100.00;96280.53;4975320;28;20494;-78
2022/09/25 05:16:51;;;;;;;22.53;18.90;;;;;;;11.42;100.00;96279.09;4975802;28;20181;-77
2022/09/25 05:19:17;;;;;;;22.57;17.37;;;;;;;11.49;100.00;96280.47;4967777;28;20208;-78
2022/09/25 05:21:42;;;;;;;21.10;17.50;;;;;;;11.42;100.00;96276.47;4975965;28;20552;-77
2022/09/25 05:24:08;;;;;;;22.97;17.83;;;;;;;11.13;100.00;96281.88;4958095;28;20646;-77
2022/09/25 05:26:36;;;;;;;25.40;17.73;;;;;;;11.16;100.00;96278.75;4975231;28;20712;-77
2022/09/25 05:29:03;;;;;;;39.30;19.63;;;;;;;11.26;100.00;96280.69;4974940;28;20276;-77
2022/09/25 05:31:29;;;;;;;28.17;18.77;;;;;;;11.33;100.00;96280.53;4975686;28;20228;-77
2022/09/25 05:33:55;;;;;;;29.37;17.83;;;;;;;11.15;100.00;96284.22;4974782;28;20205;-77
2022/09/25 05:36:20;;;;;;;28.23;17.93;;;;;;;11.23;100.00;96284.63;4975791;28;20683;-77
2022/09/25 05:38:46;;;;;;;33.07;19.53;;;;;;;11.02;100.00;96289.84;4975232;28;20208;-77
2022/09/25 05:41:12;;;;;;;24.23;16.13;;;;;;;11.13;100.00;96292.38;4975253;28;20269;-77
2022/09/25 05:43:40;;;;;;;24.03;15.37;;;;;;;11.08;100.00;96287.06;4975357;28;20208;-77
2022/09/25 05:46:05;;;;;;;22.27;16.77;;;;;;;11.21;100.00;96294.56;4974934;28;20229;-77
2022/09/25 05:48:31;;;;;;;24.43;18.43;;;;;;;11.11;100.00;96296.25;4975175;28;20216;-77
2022/09/25 05:50:57;;;;;;;18.63;15.67;;;;;;;11.18;100.00;96292.44;4975324;28;20180;-77
2022/09/25 05:53:23;;;;;;;21.50;17.00;;;;;;;11.12;100.00;96293.38;4974993;28;20188;-77
2022/09/25 05:55:59;;;;;;;19.77;14.83;;;;;;;11.03;100.00;96284.34;4975201;28;20690;-77
2022/09/25 05:58:29;;;;;;;19.47;16.57;;;;;;;11.06;100.00;96293.56;4974902;28;20200;-77
2022/09/25 06:00:58;;;;;;;19.73;16.00;;;;;;;11.21;100.00;96293.75;4975063;28;20276;-77
2022/09/25 06:03:23;;;;;;;22.20;17.03;;;;;;;11.19;100.00;96296.66;4974872;28;20206;-77
2022/09/25 06:05:48;;;;;;;21.73;18.60;;;;;;;11.16;100.00;96297.09;4975742;28;20189;-77
2022/09/25 06:08:14;;;;;;;21.13;19.00;;;;;;;11.24;100.00;96290.66;4975186;28;20215;-77
2022/09/25 06:10:40;;;;;;;27.20;23.43;;;;;;;11.35;100.00;96284.50;4974383;28;20615;-77
2022/09/25 06:13:07;;;;;;;24.27;22.03;;;;;;;11.43;100.00;96285.91;4974725;28;20264;-77
2022/09/25 06:15:37;;;;;;;24.17;21.93;;;;;;;11.45;100.00;96286.47;4973403;28;20192;-77
2022/09/25 06:18:07;;;;;;;26.13;23.60;;;;;;;11.46;100.00;96288.06;4974685;28;20212;-77
2022/09/25 06:20:33;;;;;;;28.70;25.90;;;;;;;11.53;100.00;96286.84;4974557;28;20200;-77
2022/09/25 06:22:59;;;;;;;29.30;26.27;;;;;;;11.48;100.00;96283.38;4974077;28;20181;-76
2022/09/25 06:25:27;;;;;;;30.00;26.97;;;;;;;11.56;100.00;96290.78;4975241;28;20263;-75
2022/09/25 06:27:54;;;;;;;32.93;29.67;;;;;;;11.63;100.00;96279.09;4974369;28;20220;-77
2022/09/25 06:30:20;;;;;;;30.93;27.73;;;;;;;11.56;100.00;96291.59;4974429;28;20225;-75
2022/09/25 06:32:46;;;;;;;26.07;23.27;;;;;;;11.52;100.00;96287.09;4973100;28;20232;-75
2022/09/25 06:35:12;;;;;;;27.00;24.17;;;;;;;11.66;100.00;96290.91;4973826;28;20188;-75
2022/09/25 06:37:37;;;;;;;31.90;28.80;;;;;;;11.73;100.00;96293.34;4975014;28;20308;-76
2022/09/25 06:40:03;;;;;;;30.23;27.23;;;;;;;11.59;100.00;96296.34;4974001;28;20549;-78
2022/09/25 06:42:28;;;;;;;31.37;28.47;;;;;;;11.77;100.00;96294.47;4972916;28;20845;-77
2022/09/25 06:44:53;;;;;;;31.27;28.30;;;;;;;11.83;100.00;96299.53;4974431;28;20303;-78
2022/09/25 06:47:20;;;;;;;41.27;37.77;;;;;;;11.93;100.00;96293.59;4974032;28;20196;-77
2022/09/25 06:49:45;;;;;;;37.20;33.87;;;;;;;11.96;100.00;96293.91;4956633;28;20190;-77
2022/09/25 06:52:11;;;;;;;39.10;35.90;;;;;;;11.90;100.00;96294.09;4974001;28;20275;-77
2022/09/25 06:54:36;;;;;;;29.20;26.47;;;;;;;11.93;100.00;96297.00;4973894;28;20185;-77
2022/09/25 06:57:02;;;;;;;26.40;23.90;;;;;;;11.97;100.00;96297.34;4974015;28;20216;-77
2022/09/25 06:59:27;;;;;;;27.00;24.50;;;;;;;12.01;100.00;96301.03;4956611;28;20305;-78
2022/09/25 07:01:52;;;;;;;30.23;27.60;;;;;;;12.03;100.00;96297.16;4974088;28;20200;-76
2022/09/25 07:04:18;;;;;;;37.03;33.80;;;;;;;12.04;100.00;96303.97;4973799;28;20197;-77
2022/09/25 07:06:43;;;;;;;40.03;36.83;;;;;;;12.11;100.00;96303.78;4956703;28;20239;-77
2022/09/25 07:09:09;;;;;;;37.67;34.60;;;;;;;12.13;100.00;96309.59;4973729;28;20185;-76
2022/09/25 07:11:34;;;;;;;38.30;35.20;;;;;;;12.24;100.00;96305.22;4956297;28;20239;-77
2022/09/25 07:14:00;;;;;;;38.20;35.07;;;;;;;12.31;100.00;96309.25;4972834;28;20196;-76
2022/09/25 07:16:28;;;;;;;41.00;37.67;;;;;;;12.33;100.00;96308.97;4955998;28;20211;-76
2022/09/25 07:19:02;;;;;;;36.17;32.97;;;;;;;12.33;100.00;96311.59;4973420;28;20755;-77
2022/09/25 07:21:29;;;;;;;36.07;32.97;;;;;;;12.27;100.00;96315.22;4973602;28;20806;-77
2022/09/25 07:23:56;;;;;;;31.03;28.10;;;;;;;12.49;100.00;96313.31;4973515;28;20177;-78
2022/09/25 07:26:24;;;;;;;29.47;26.70;;;;;;;12.39;100.00;96307.97;4973537;28;20192;-77
2022/09/25 07:28:54;;;;;;;25.50;23.03;;;;;;;12.34;100.00;96313.19;4973664;28;20260;-77
2022/09/25 07:31:25;;;;;;;26.40;23.90;;;;;;;12.45;100.00;96309.59;4973267;28;20200;-77
2022/09/25 07:33:51;;;;;;;28.60;25.93;;;;;;;12.82;100.00;96307.81;4972471;28;20189;-77
2022/09/25 07:36:18;;;;;;;25.67;22.97;;;;;;;12.63;100.00;96314.50;4973283;28;20192;-77
2022/09/25 07:38:47;;;;;;;26.87;24.33;;;;;;;12.42;100.00;96315.38;4973313;28;20752;-77
2022/09/25 07:41:13;;;;;;;29.43;26.63;;;;;;;12.69;100.00;96310.88;4949716;28;20241;-77
2022/09/25 07:43:42;;;;;;;28.23;25.83;;;;;;;12.54;100.00;96315.22;4973139;28;20201;-76
2022/09/25 07:46:07;;;;;;;28.53;26.13;;;;;;;12.55;100.00;96312.31;4973494;28;20599;-75
2022/09/25 07:48:32;;;;;;;41.93;38.87;;;;;;;12.71;100.00;96316.66;4973355;28;20193;-75
2022/09/25 07:51:02;;;;;;;34.37;31.73;;;;;;;12.79;100.00;96315.41;4973587;28;20641;-76
2022/09/25 07:53:27;;;;;;;38.80;35.97;;;;;;;12.62;100.00;96315.53;4976301;28;20188;-76
2022/09/25 07:56:00;;;;;;;63.47;59.20;;;;;;;12.86;100.00;96319.44;4959966;28;20235;-76
2022/09/25 07:58:27;;;;;;;38.53;35.47;;;;;;;12.87;100.00;96318.34;4977324;28;20235;-76
2022/09/25 08:00:57;;;;;;;57.83;54.07;;;;;;;13.01;100.00;96320.56;4977122;28;20184;-76
2022/09/25 08:03:23;;;;;;;42.43;39.53;;;;;;;12.93;100.00;96316.56;4977189;28;20196;-75
2022/09/25 08:05:56;;;;;;;33.63;31.13;;;;;;;13.10;100.00;96321.66;4976733;28;20188;-76
2022/09/25 08:08:22;;;;;;;35.43;32.60;;;;;;;12.97;100.00;96324.75;4977142;28;20190;-76
2022/09/25 08:10:47;;;;;;;23.87;21.87;;;;;;;13.22;100.00;96320.47;4976626;28;20682;-76
2022/09/25 08:13:13;;;;;;;22.53;20.73;;;;;;;13.27;100.00;96319.69;4977193;28;20188;-76
2022/09/25 08:15:39;;;;;;;19.40;17.80;;;;;;;13.42;100.00;96324.28;4976127;28;20196;-76
2022/09/25 08:18:04;;;;;;;22.23;20.23;;;;;;;13.42;100.00;96325.06;4976756;28;20584;-77
2022/09/25 08:20:30;;;;;;;24.07;22.23;;;;;;;13.30;100.00;96321.84;4976717;28;20192;-76
2022/09/25 08:22:56;;;;;;;29.07;26.77;;;;;;;13.14;100.00;96326.22;4977025;28;20596;-75
2022/09/25 08:25:21;;;;;;;32.23;29.90;;;;;;;13.43;100.00;96321.38;4977258;28;20192;-75
2022/09/25 08:27:46;;;;;;;38.67;35.93;;;;;;;13.30;100.00;96320.00;4977101;28;20641;-75
2022/09/25 08:30:12;;;;;;;28.63;26.50;;;;;;;13.48;100.00;96318.78;4977006;28;20522;-74
2022/09/25 08:32:38;;;;;;;21.97;20.13;;;;;;;13.50;100.00;96318.50;4976076;28;20744;-76
2022/09/25 08:35:04;;;;;;;19.70;18.17;;;;;;;13.56;100.00;96317.50;4976246;28;20180;-74
2022/09/25 08:37:30;;;;;;;21.77;19.97;;;;;;;13.83;100.00;96318.13;4976742;28;20220;-75
2022/09/25 08:39:59;;;;;;;22.47;20.90;;;;;;;13.85;100.00;96321.31;4976757;28;20267;-74
2022/09/25 08:42:33;;;;;;;28.53;26.57;;;;;;;14.12;100.00;96313.22;4976717;28;20185;-76
2022/09/25 08:50:35;;;;;;;23.20;21.50;;;;;;;14.23;100.00;96314.81;4969937;28;20204;-74
2022/09/25 08:53:20;;;;;;;31.67;29.50;;;;;;;14.28;100.00;96300.84;4973344;28;20188;-76
2022/09/25 08:58:32;;;;;;;25.20;23.20;;;;;;;14.69;100.00;96305.13;4956722;29;20248;-76
2022/09/25 09:01:04;;;;;;;24.50;22.77;;;;;;;15.07;100.00;96305.63;4963276;28;20183;-75
2022/09/25 09:03:32;;;;;;;27.20;25.43;;;;;;;14.92;100.00;96307.25;4942034;28;20264;-76
2022/09/25 09:06:09;;;;;;;19.30;17.93;;;;;;;14.73;100.00;96308.81;4975327;28;20181;-76
2022/09/25 09:08:37;;;;;;;25.53;23.67;;;;;;;14.63;100.00;96315.94;4970874;28;20172;-76
2022/09/25 09:11:20;;;;;;;24.23;22.73;;;;;;;14.99;100.00;96305.09;4958159;28;20180;-76
2022/09/25 09:13:52;;;;;;;16.53;15.20;;;;;;;14.85;100.00;96303.28;4968639;28;20195;-77
2022/09/25 09:16:48;;;;;;;20.90;19.43;;;;;;;15.30;100.00;96299.78;4975117;28;20235;-76
2022/09/25 09:19:14;;;;;;;22.43;21.00;;;;;;;15.71;100.00;96300.50;4971816;28;20267;-75
2022/09/25 09:21:50;;;;;;;19.63;18.13;;;;;;;15.49;100.00;96305.28;4975282;28;21953;-76
2022/09/25 09:24:17;;;;;;;18.90;17.70;;;;;;;15.79;100.00;96305.19;4975644;28;20171;-75
2022/09/25 09:26:54;;;;;;;15.75;14.65;;;;;;;15.42;100.00;96305.56;4974953;28;20227;-76
2022/09/25 09:30:10;;;;;;;12.20;11.30;;;;;;;15.64;100.00;96305.25;4975407;28;20173;-76
2022/09/25 09:32:55;;;;;;;11.97;11.03;;;;;;;15.43;100.00;96301.88;4944287;28;20228;-76
2022/09/25 09:35:40;;;;;;;16.33;15.13;;;;;;;15.18;100.00;96307.19;4974973;28;20208;-76
2022/09/25 09:38:25;;;;;;;13.77;12.67;;;;;;;14.97;100.00;96298.53;4973683;28;20550;-76
2022/09/25 09:41:12;;;;;;;12.60;11.40;;;;;;;15.04;100.00;96295.63;4975707;28;20179;-76
2022/09/25 09:44:12;;;;;;;13.15;12.20;;;;;;;14.68;100.00;96300.13;4968578;28;20232;-76
2022/09/25 09:46:56;;;;;;;17.63;16.33;;;;;;;14.66;100.00;96296.94;4969205;28;20176;-75
2022/09/25 09:49:49;;;;;;;20.63;19.43;;;;;;;14.56;100.00;96297.75;4966225;28;20196;-76
2022/09/25 09:52:27;;;;;;;12.93;11.93;;;;;;;14.61;100.00;96291.66;4975162;28;20547;-75
2022/09/25 09:55:14;;;;;;;19.33;17.87;;;;;;;14.67;100.00;96293.25;4957900;28;20191;-76
2022/09/25 09:57:46;;;;;;;19.37;18.03;;;;;;;14.86;100.00;96299.59;4970163;28;20267;-76
2022/09/25 10:00:17;;;;;;;20.67;19.30;;;;;;;15.27;100.00;96298.47;4974934;28;20263;-75
2022/09/25 10:02:59;;;;;;;25.57;23.73;;;;;;;14.93;100.00;96297.47;4975553;28;20588;-74
2022/09/25 10:05:35;;;;;;;11.30;10.27;;;;;;;15.22;100.00;96292.41;4974790;28;20627;-73
2022/09/25 10:08:00;;;;;;;11.33;10.43;;;;;;;15.48;100.00;96291.28;4964654;28;20173;-74
2022/09/25 10:10:36;;;;;;;17.13;15.93;;;;;;;15.61;100.00;96290.72;4974581;28;20184;-72
2022/09/25 10:13:05;;;;;;;27.13;25.17;;;;;;;15.39;100.00;96290.25;4974240;28;20172;-75
2022/09/25 10:15:47;;;;;;;34.13;32.03;;;;;;;15.39;100.00;96288.41;4973291;28;20268;-73
2022/09/25 10:18:14;;;;;;;66.82;62.88;;;;;;;15.34;100.00;96291.06;4974134;28;20246;-73
2022/09/25 10:20:45;;;;;;;52.28;49.25;;;;;;;15.42;100.00;96284.44;4974264;28;20259;-73
2022/09/25 10:23:46;;;;;;;78.15;73.43;;;;;;;15.26;100.00;96282.91;4974220;28;20173;-74
2022/09/25 10:26:38;;;;;;;67.18;63.22;;;;;;;15.30;100.00;96276.81;4945371;28;20685;-72
2022/09/25 10:29:25;;;;;;;56.90;53.53;;;;;;;15.20;98.97;96284.78;4970775;28;20228;-72
2022/09/25 10:32:02;;;;;;;11.77;10.77;;;;;;;15.12;100.00;96292.44;4973494;28;20734;-72
2022/09/25 10:34:30;;;;;;;11.30;10.20;;;;;;;15.22;98.68;96289.75;4974363;28;20193;-76
2022/09/25 10:36:55;;;;;;;8.73;7.97;;;;;;;15.65;99.50;96291.78;4974702;28;20172;-74
2022/09/25 10:39:30;;;;;;;10.50;9.43;;;;;;;15.54;99.79;96289.44;4973832;28;20568;-75
2022/09/25 10:41:57;;;;;;;11.97;11.07;;;;;;;15.63;100.00;96293.09;4974371;28;20236;-74
2022/09/25 10:44:33;;;;;;;11.60;10.50;;;;;;;15.47;98.76;96302.13;4956463;28;20197;-73
2022/09/25 10:50:23;;;;;;;17.40;16.03;;;;;;;14.60;100.00;96292.75;4974018;28;20675;-73
2022/09/25 10:52:51;;;;;;;16.23;15.03;;;;;;;14.24;100.00;96294.53;4968668;28;20188;-74
2022/09/25 10:55:34;;;;;;;18.00;16.47;;;;;;;14.20;100.00;96294.25;4973690;28;20180;-74
2022/09/25 10:58:21;;;;;;;22.40;20.70;;;;;;;14.49;100.00;96292.72;4973679;28;20197;-73
2022/09/25 11:00:50;;;;;;;11.20;10.20;;;;;;;14.26;100.00;96295.06;4956401;28;20192;-74
2022/09/25 11:03:44;;;;;;;18.10;16.60;;;;;;;14.05;100.00;96300.28;4974094;28;20197;-74
2022/09/25 11:06:19;;;;;;;30.30;28.40;;;;;;;13.86;100.00;96299.19;4973546;28;20192;-74
2022/09/25 11:08:48;;;;;;;37.90;35.47;;;;;;;13.66;100.00;96297.25;4967942;28;20176;-74
2022/09/25 11:11:20;;;;;;;20.37;18.80;;;;;;;13.94;100.00;96303.13;4972835;28;20189;-74
2022/09/25 11:13:49;;;;;;;44.93;42.13;;;;;;;13.85;100.00;96305.50;4971763;28;20704;-75
2022/09/25 11:16:15;;;;;;;29.33;27.30;;;;;;;13.96;100.00;96304.47;4972814;28;20184;-75
2022/09/25 11:19:11;;;;;;;30.23;28.23;;;;;;;13.71;100.00;96301.75;4973180;28;20201;-75
2022/09/25 11:21:59;;;;;;;36.80;34.40;;;;;;;13.66;100.00;96307.78;4971016;28;20199;-76
2022/09/25 11:24:49;;;;;;;32.27;29.83;;;;;;;13.77;100.00;96302.56;4968949;28;20180;-74
2022/09/25 11:27:41;;;;;;;26.87;24.97;;;;;;;13.74;100.00;96302.03;4972753;28;20185;-74
2022/09/25 11:30:15;;;;;;;25.87;24.17;;;;;;;13.86;100.00;96307.09;4948878;28;20193;-75
2022/09/25 11:32:50;;;;;;;27.47;25.47;;;;;;;13.97;100.00;96302.63;4970634;28;20221;-74
2022/09/25 11:35:41;;;;;;;30.50;28.30;;;;;;;13.72;100.00;96306.75;4973229;28;20192;-75
2022/09/25 11:38:14;;;;;;;35.23;32.43;;;;;;;13.95;100.00;96304.72;4965882;28;20653;-75
2022/09/25 11:41:14;;;;;;;36.10;33.60;;;;;;;13.99;100.00;96303.16;4955586;28;20630;-75
2022/09/25 11:44:00;;;;;;;35.77;33.27;;;;;;;14.24;100.00;96308.50;4973815;28;20180;-75
2022/09/25 11:46:58;;;;;;;34.80;32.33;;;;;;;14.35;100.00;96311.94;4973186;28;20188;-75